KDLH/DLH METAR and TAF weather

Enter ICAO airport designator
Station Type Date Time Source
KDLH METAR 2019/05/27 08:55 UTC NOAA

KDLH 270855Z 09013G21KT 10SM OVC100 08/00 A3009 RMK AO2 SLP192 60000 T00780000 56018


Station Type Date Time Source
KDLH Decoded METAR 2019/05/27 08:55 UTC NOAA

Duluth, Duluth International Airport, MN, United States (KDLH) 46-50-34N 092-13-34W 435M
May 27, 2019 - 04:55 AM EDT / 2019.05.27 0855 UTC
Wind: from the E (090 degrees) at 15 MPH (13 KT) gusting to 24 MPH (21 KT):0
Visibility: 10 mile(s):0
Sky conditions: overcast
Temperature: 46.0 F (7.8 C)
Dew Point: 32.0 F (0.0 C)
Relative Humidity: 57%
Pressure (altimeter): 30.09 in. Hg (1018 hPa)
Pressure tendency: 0.05 inches (1.8 hPa) lower than three hours ago
ob: KDLH 270855Z 09013G21KT 10SM OVC100 08/00 A3009 RMK AO2 SLP192 60000 T00780000 56018
cycle: 9

Station Type Date Time Source
KDLH TAF 2019/05/27 08:58 UTC NOAA

TAF
AMD KDLH 270757Z 2708/2806 08011G19KT P6SM VCSH SCT019 OVC070
TEMPO 2709/2710 6SM -RA BKN019 OVC050
FM271400 08016G25KT P6SM VCSH OVC027
FM272300 07014G18KT P6SM VCSH OVC045
FM280400 06008KT P6SM OVC024

Example: see airport list